Poole, Kentucky
Current Conditions -  °F | °C
As of 6:55 PM on Friday 19 Dec 2014 (Local Time) from KEHR Reporting Station
Clear Clear  
Wind Chill: -2°   Ceiling: Unl
Heat Index:   Visibility: 10mi
Dew Point: -4°   Wind: 6mph
Humidity: 70%   Direction: 50°NE
Pressure: 30.28"   Gusts: NA
Location:  37.64°N, 87.64°W
Report Text: KEHR 200055Z AUTO 05005KT 10SM CLR 01/M04 A3028 RMK AO1
Loading
Personal Weather Stations






























Interactive Weather Map New forecast layout! Learn more

10-Day Weather Forecast

Advertisements
Track Severe Weather on mobile